Main page
METAR-TAF:

METAR-TAF

Airports :

Angads Airport

Oujda, Morocco

latitude: 34-47N, longitude: 001-56W, elevation: 468 m

Current weather observation

The report was made 44 minutes ago, at 22:30 UTC
Wind 3 kt from the West, varying between South and North/Northwest
Temperature 22°C
Humidity 73%
Pressure 1019 hPa
Visibility 10 km or more
no clouds below 1500 m and no cumulonimbus

METAR: GMFO 052230Z 27003KT 190V340 CAVOK 22/17 Q1019 NOSIG

Time: 00:14 (23:14 UTC)

Forecast

The report was made 6 hours and 14 minutes ago, at 17:00 UTC
Forecast valid from 05 at 18 UTC to 06 at 24 UTC
Wind 17 kt from the North
Visibility 10 km or more
no clouds below 1500 m and no cumulonimbus
Temporary
from 05 at 22 UTC to 06 at 10 UTC
Wind 3 kt from variable directions

TAF: GMFO 051700Z 0518/0624 36017KT CAVOK TEMPO 0522/0610 VRB03KT

Weather observations and forecasts of more than 4000 airports (METAR and TAF reports).

The available stations are represented by yellow and red dots on the map.

Hover mouse over dot to see the name of the station.

Then click to see weather observations and forecasts.

To change the map : click on the green buttons with a black cross to zoom in, on the green button with a dash to zoom out, or on the green arrows for adjacent maps.


METAR-TAF: